createdAt,value
2018-09-08T00:00:27.277Z,8.7
2018-09-08T00:02:40.196Z,8.8
2018-09-08T00:03:39.937Z,8.8
2018-09-08T00:04:39.851Z,8.8
2018-09-08T00:05:40.129Z,8.8
2018-09-08T00:06:39.920Z,8.8
2018-09-08T00:07:40.210Z,8.8
2018-09-08T00:08:39.949Z,8.8
2018-09-08T00:09:39.939Z,8.8
2018-09-08T00:10:39.956Z,8.8
2018-09-08T00:11:39.933Z,8.8
2018-09-08T00:12:40.522Z,8.8
2018-09-08T00:13:39.874Z,8.7
2018-09-08T00:14:40.185Z,8.7
2018-09-08T00:15:39.925Z,8.7
2018-09-08T00:16:39.991Z,8.7
2018-09-08T00:17:40.928Z,8.7
2018-09-08T00:18:40.021Z,8.7
2018-09-08T00:19:39.965Z,8.7
2018-09-08T00:20:39.901Z,8.8
2018-09-08T00:21:39.853Z,8.8
2018-09-08T00:23:08.462Z,8.8
2018-09-08T00:23:39.963Z,8.8
2018-09-08T00:24:40.005Z,8.8
2018-09-08T00:25:40.180Z,8.7
2018-09-08T00:26:40.402Z,8.7
2018-09-08T00:27:39.921Z,8.7
2018-09-08T00:28:39.936Z,8.7
2018-09-08T00:29:39.988Z,8.7
2018-09-08T00:30:39.930Z,8.7
2018-09-08T00:31:39.979Z,8.7
2018-09-08T00:32:40.009Z,8.7
2018-09-08T00:34:52.498Z,8.7
2018-09-08T00:35:52.396Z,8.6
2018-09-08T00:36:52.750Z,8.6
2018-09-08T00:37:52.471Z,8.6
2018-09-08T00:38:52.420Z,8.5
2018-09-08T00:39:52.485Z,8.5
2018-09-08T00:40:52.392Z,8.4
2018-09-08T00:41:52.449Z,8.4
2018-09-08T00:42:52.460Z,8.4
2018-09-08T00:43:52.416Z,8.6
2018-09-08T00:44:53.152Z,8.6
2018-09-08T00:45:52.495Z,8.6
2018-09-08T00:46:52.490Z,8.6
2018-09-08T00:47:52.430Z,8.6
2018-09-08T00:48:52.730Z,8.8
2018-09-08T00:49:52.717Z,8.8
2018-09-08T00:50:52.417Z,8.8
2018-09-08T00:51:52.409Z,8.8
2018-09-08T00:52:52.418Z,8.8
2018-09-08T00:53:52.703Z,8.8
2018-09-08T00:54:53.442Z,8.8
2018-09-08T00:55:52.710Z,8.8
2018-09-08T00:56:52.807Z,8.8
2018-09-08T00:57:52.486Z,8.8
2018-09-08T00:58:52.480Z,8.8
2018-09-08T00:59:52.451Z,8.8
2018-09-08T01:00:52.794Z,8.8
2018-09-08T01:01:52.689Z,8.8
2018-09-08T01:02:52.504Z,8.8
2018-09-08T01:03:52.605Z,8.6
2018-09-08T01:05:21.118Z,8.6
2018-09-08T01:05:52.537Z,8.6
2018-09-08T01:06:52.450Z,8.5
2018-09-08T01:07:52.484Z,8.5
2018-09-08T01:08:52.503Z,8.4
2018-09-08T01:09:52.553Z,8.4
2018-09-08T01:10:52.454Z,8.4
2018-09-08T01:11:52.455Z,8.4
2018-09-08T01:12:52.734Z,8.4
2018-09-08T01:13:52.481Z,8.5
2018-09-08T01:14:52.842Z,8.5
2018-09-08T01:17:05.510Z,8.5
2018-09-08T01:18:05.658Z,8.5
2018-09-08T01:19:05.504Z,8.5
2018-09-08T01:20:05.539Z,8.5
2018-09-08T01:21:05.520Z,8.5
2018-09-08T01:22:05.559Z,8.5
2018-09-08T01:23:05.493Z,8.5
2018-09-08T01:24:05.822Z,8.6
2018-09-08T01:25:05.822Z,8.6
2018-09-08T01:26:05.589Z,8.6
2018-09-08T01:27:21.682Z,8.7
2018-09-08T01:28:05.806Z,8.7
2018-09-08T01:29:05.545Z,8.7
2018-09-08T01:30:05.572Z,8.7
2018-09-08T01:31:05.543Z,8.7
2018-09-08T01:32:05.562Z,8.6
2018-09-08T01:33:05.610Z,8.6
2018-09-08T01:34:05.784Z,8.6
2018-09-08T01:35:05.553Z,8.6
2018-09-08T01:36:05.621Z,8.6
2018-09-08T01:39:14.909Z,8.6
2018-09-08T01:40:16.013Z,8.5
2018-09-08T01:41:15.657Z,8.5
2018-09-08T01:42:16.070Z,8.6
2018-09-08T01:43:16.048Z,8.6
2018-09-08T01:44:15.729Z,8.8
2018-09-08T01:45:15.685Z,8.8
2018-09-08T01:46:15.699Z,8.8
2018-09-08T01:47:15.988Z,8.7
2018-09-08T01:48:15.948Z,8.7
2018-09-08T01:49:16.801Z,8.7
2018-09-08T01:50:15.704Z,8.7
2018-09-08T01:51:15.719Z,8.7
2018-09-08T01:52:15.969Z,8.6
2018-09-08T01:53:15.691Z,8.6
2018-09-08T01:54:15.726Z,8.6
2018-09-08T01:55:15.718Z,8.6
2018-09-08T01:56:15.704Z,8.6
2018-09-08T01:57:15.660Z,8.4
2018-09-08T01:58:15.702Z,8.4
2018-09-08T02:00:08.412Z,8.4
2018-09-08T02:00:16.592Z,8.4
2018-09-08T02:01:16.928Z,8.4
2018-09-08T02:02:16.668Z,8.2
2018-09-08T02:03:16.654Z,8.2
2018-09-08T02:04:16.608Z,8.2
2018-09-08T02:05:16.577Z,8.2
2018-09-08T02:06:16.557Z,8.2
2018-09-08T02:07:16.572Z,8.2
2018-09-08T02:08:16.609Z,8.2
2018-09-08T02:09:16.549Z,8.2
2018-09-08T02:11:29.697Z,8.1
2018-09-08T02:12:29.650Z,8.0
2018-09-08T02:13:29.941Z,8.0
2018-09-08T02:14:29.735Z,8.0
2018-09-08T02:15:29.984Z,8.2
2018-09-08T02:16:29.748Z,8.2
2018-09-08T02:17:29.685Z,8.2
2018-09-08T02:18:29.687Z,8.2
2018-09-08T02:19:29.702Z,8.2
2018-09-08T02:20:29.711Z,8.2
2018-09-08T02:21:29.784Z,8.2
2018-09-08T02:22:29.736Z,8.1
2018-09-08T02:23:29.701Z,8.1
2018-09-08T02:24:29.706Z,8.1
2018-09-08T02:25:30.115Z,8.1
2018-09-08T02:26:30.050Z,8.1
2018-09-08T02:27:29.738Z,8.2
2018-09-08T02:28:30.034Z,8.2
2018-09-08T02:29:29.799Z,8.2
2018-09-08T02:37:02.277Z,8.1
2018-09-08T02:37:11.541Z,8.1
2018-09-08T02:38:11.494Z,8.0
2018-09-08T02:39:11.565Z,8.0
2018-09-08T02:40:11.588Z,8.0
2018-09-08T02:41:11.588Z,8.0
2018-09-08T02:42:11.865Z,8.0
2018-09-08T02:43:11.518Z,8.0
2018-09-08T02:44:11.577Z,8.0
2018-09-08T02:45:11.529Z,8.0
2018-09-08T02:46:12.674Z,8.0
2018-09-08T02:47:11.555Z,8.0
2018-09-08T02:48:11.540Z,8.1
2018-09-08T02:49:11.555Z,8.1
2018-09-08T02:50:11.492Z,8.1
2018-09-08T02:51:11.555Z,8.0
2018-09-08T02:52:11.857Z,8.0
2018-09-08T02:53:11.557Z,7.8
2018-09-08T02:54:11.764Z,7.8
2018-09-08T02:55:11.498Z,7.8
2018-09-08T03:07:17.405Z,7.9
2018-09-08T03:08:17.467Z,8.0
2018-09-08T03:09:17.438Z,8.0
2018-09-08T03:10:17.497Z,8.0
2018-09-08T03:11:17.472Z,7.9
2018-09-08T03:12:17.748Z,7.9
2018-09-08T03:13:17.486Z,7.9
2018-09-08T03:14:17.493Z,7.9
2018-09-08T03:15:17.512Z,7.9
2018-09-08T03:16:17.488Z,7.9
2018-09-08T03:18:10.361Z,7.9
2018-09-08T03:18:18.519Z,7.9
2018-09-08T03:19:18.500Z,7.8
2018-09-08T03:20:18.829Z,7.8
2018-09-08T03:21:18.502Z,7.7
2018-09-08T03:22:18.506Z,7.7
2018-09-08T03:23:18.577Z,7.7
2018-09-08T03:24:18.584Z,7.7
2018-09-08T03:25:18.515Z,7.7
2018-09-08T03:26:18.520Z,7.6
2018-09-08T03:27:18.519Z,7.6
2018-09-08T03:28:18.499Z,7.6
2018-09-08T03:29:18.541Z,7.6
2018-09-08T03:30:18.508Z,7.6
2018-09-08T03:31:18.557Z,7.5
2018-09-08T03:32:18.619Z,7.5
2018-09-08T03:33:18.581Z,7.5
2018-09-08T03:34:18.546Z,7.4
2018-09-08T03:35:18.585Z,7.4
2018-09-08T03:36:18.568Z,7.4
2018-09-08T03:37:18.543Z,7.4
2018-09-08T03:38:18.541Z,7.4
2018-09-08T03:39:18.572Z,7.4
2018-09-08T03:40:18.915Z,7.4
2018-09-08T03:41:18.561Z,7.3
2018-09-08T03:42:18.575Z,7.3
2018-09-08T03:43:18.530Z,7.3
2018-09-08T03:44:18.579Z,7.2
2018-09-08T03:45:18.528Z,7.2
2018-09-08T03:46:18.560Z,7.2
2018-09-08T03:47:18.610Z,7.2
2018-09-08T03:48:18.590Z,7.2
2018-09-08T03:49:18.548Z,7.2
2018-09-08T03:50:18.584Z,7.2
2018-09-08T03:51:18.570Z,7.2
2018-09-08T03:52:18.605Z,7.2
2018-09-08T03:53:18.606Z,7.2
2018-09-08T03:54:18.625Z,7.6
2018-09-08T03:55:18.584Z,7.6
2018-09-08T03:56:18.616Z,7.6
2018-09-08T03:57:18.657Z,7.6
2018-09-08T03:58:18.557Z,7.6
2018-09-08T03:59:18.561Z,7.5
2018-09-08T04:00:18.919Z,7.5
2018-09-08T04:01:18.607Z,7.5
2018-09-08T04:02:18.874Z,7.5
2018-09-08T04:03:18.596Z,7.5
2018-09-08T04:04:18.598Z,7.5
2018-09-08T04:05:18.867Z,7.5
2018-09-08T04:06:18.649Z,7.5
2018-09-08T04:07:18.900Z,7.6
2018-09-08T04:08:18.919Z,7.6
2018-09-08T04:09:18.869Z,7.6
2018-09-08T04:10:18.609Z,7.6
2018-09-08T04:11:18.808Z,7.6
2018-09-08T04:12:18.657Z,7.6
2018-09-08T04:13:18.961Z,7.6
2018-09-08T04:14:18.659Z,7.5
2018-09-08T04:15:18.610Z,7.5
2018-09-08T04:16:18.594Z,7.5
2018-09-08T04:17:18.622Z,7.1
2018-09-08T04:18:18.912Z,7.1
2018-09-08T04:19:18.943Z,7.1
2018-09-08T04:20:18.599Z,7.1
2018-09-08T04:21:18.907Z,7.1
2018-09-08T04:22:18.700Z,7.1
2018-09-08T04:23:18.897Z,7.1
2018-09-08T04:24:18.938Z,7.1
2018-09-08T04:25:18.658Z,7.1
2018-09-08T04:26:18.920Z,7.1
2018-09-08T04:27:18.638Z,7.1
2018-09-08T04:28:18.661Z,7.1
2018-09-08T04:29:18.709Z,7.1
2018-09-08T04:30:18.649Z,7.2
2018-09-08T04:31:18.643Z,7.2
2018-09-08T04:32:18.765Z,7.2
2018-09-08T04:33:18.621Z,7.2
2018-09-08T04:34:18.634Z,7.2
2018-09-08T04:35:18.668Z,7.3
2018-09-08T04:36:18.948Z,7.3
2018-09-08T04:37:18.678Z,7.2
2018-09-08T04:38:47.072Z,7.2
2018-09-08T04:39:18.650Z,7.2
2018-09-08T04:40:18.664Z,7.2
2018-09-08T04:41:18.643Z,7.2
2018-09-08T04:42:18.922Z,7.2
2018-09-08T04:43:18.701Z,7.2
2018-09-08T04:44:18.656Z,7.2
2018-09-08T04:45:18.686Z,7.1
2018-09-08T04:46:18.686Z,7.1
2018-09-08T04:47:18.747Z,7.1
2018-09-08T04:48:18.732Z,7.1
2018-09-08T04:49:18.740Z,7.1
2018-09-08T04:50:18.714Z,7.1
2018-09-08T04:51:18.665Z,7.1
2018-09-08T04:52:18.694Z,7.1
2018-09-08T04:53:18.726Z,7.1
2018-09-08T04:54:19.031Z,7.1
2018-09-08T04:55:18.678Z,6.9
2018-09-08T04:56:18.626Z,6.9
2018-09-08T04:57:18.728Z,6.9
2018-09-08T04:58:20.973Z,6.7
2018-09-08T04:59:19.016Z,6.7
2018-09-08T05:00:18.760Z,6.7
2018-09-08T05:01:19.002Z,6.7
2018-09-08T05:02:18.785Z,6.7
2018-09-08T05:03:19.079Z,6.7
2018-09-08T05:04:18.688Z,6.7
2018-09-08T05:05:18.726Z,6.7
2018-09-08T05:06:19.301Z,6.7
2018-09-08T05:07:19.108Z,6.7
2018-09-08T05:08:23.846Z,6.6
2018-09-08T05:09:19.615Z,6.6
2018-09-08T05:10:19.031Z,6.7
2018-09-08T05:11:18.719Z,6.7
2018-09-08T05:12:19.237Z,6.7
2018-09-08T05:13:20.314Z,6.6
2018-09-08T05:15:19.317Z,6.7
2018-09-08T05:16:18.789Z,6.7
2018-09-08T05:17:18.883Z,6.7
2018-09-08T05:18:18.813Z,6.9
2018-09-08T05:19:19.127Z,6.9
2018-09-08T05:20:18.814Z,7.0
2018-09-08T05:21:18.825Z,7.0
2018-09-08T05:22:19.461Z,7.0
2018-09-08T05:23:18.889Z,7.0
2018-09-08T05:24:19.141Z,7.0
2018-09-08T05:25:19.176Z,7.0
2018-09-08T05:26:20.956Z,7.0
2018-09-08T05:27:18.931Z,7.0
2018-09-08T05:28:18.938Z,7.1
2018-09-08T05:29:18.921Z,7.1
2018-09-08T05:30:19.177Z,7.1
2018-09-08T05:31:19.205Z,7.2
2018-09-08T05:32:18.918Z,7.2
2018-09-08T05:34:18.919Z,7.2
2018-09-08T05:35:18.843Z,7.2
2018-09-08T05:36:30.131Z,7.3
2018-09-08T05:37:19.162Z,7.3
2018-09-08T05:38:18.912Z,7.4
2018-09-08T05:39:18.943Z,7.4
2018-09-08T05:40:18.926Z,7.4
2018-09-08T05:41:18.893Z,7.4
2018-09-08T05:42:18.918Z,7.4
2018-09-08T05:43:18.902Z,7.4
2018-09-08T05:44:19.198Z,7.4
2018-09-08T05:45:18.902Z,7.4
2018-09-08T05:47:43.561Z,7.4
2018-09-08T05:47:53.960Z,7.4
2018-09-08T05:48:53.980Z,7.4
2018-09-08T05:49:53.899Z,7.4
2018-09-08T05:50:53.949Z,7.4
2018-09-08T05:51:53.937Z,7.4
2018-09-08T05:52:53.976Z,7.4
2018-09-08T05:53:54.227Z,7.6
2018-09-08T05:54:53.980Z,7.6
2018-09-08T05:55:54.231Z,7.9
2018-09-08T05:56:53.943Z,7.9
2018-09-08T05:57:54.956Z,7.9
2018-09-08T05:58:53.953Z,8.3
2018-09-08T05:59:54.234Z,8.3
2018-09-08T06:00:54.104Z,8.3
2018-09-08T06:01:54.023Z,8.7
2018-09-08T06:02:54.074Z,8.7
2018-09-08T06:03:54.379Z,9.0
2018-09-08T06:04:54.192Z,9.0
2018-09-08T06:05:55.571Z,9.0
2018-09-08T06:06:54.074Z,9.2
2018-09-08T06:08:22.555Z,9.2
2018-09-08T06:08:54.376Z,9.2
2018-09-08T06:09:54.871Z,9.2
2018-09-08T06:10:54.127Z,9.2
2018-09-08T06:11:54.044Z,9.5
2018-09-08T06:12:54.014Z,9.5
2018-09-08T06:13:54.009Z,9.9
2018-09-08T06:14:53.908Z,9.9
2018-09-08T06:15:54.014Z,9.9
2018-09-08T06:16:53.943Z,9.9
2018-09-08T06:17:54.090Z,9.9
2018-09-08T06:20:06.973Z,10.5
2018-09-08T06:21:06.740Z,10.5
2018-09-08T06:22:06.655Z,10.5
2018-09-08T06:23:06.619Z,10.5
2018-09-08T06:24:06.800Z,10.7
2018-09-08T06:26:06.579Z,10.7
2018-09-08T06:27:08.797Z,10.8
2018-09-08T06:28:07.643Z,10.8
2018-09-08T06:30:06.662Z,10.7
2018-09-08T06:31:06.491Z,10.7
2018-09-08T06:32:06.574Z,10.6
2018-09-08T06:33:06.496Z,10.6
2018-09-08T06:34:06.797Z,10.4
2018-09-08T06:35:06.753Z,10.4
2018-09-08T06:36:06.543Z,10.4
2018-09-08T06:37:06.492Z,10.5
2018-09-08T06:38:06.565Z,10.5
2018-09-08T06:39:06.545Z,10.6
2018-09-08T06:40:06.856Z,10.6
2018-09-08T06:41:06.575Z,10.6
2018-09-08T06:42:06.550Z,10.7
2018-09-08T06:43:06.569Z,10.7
2018-09-08T06:44:06.793Z,10.7
2018-09-08T06:45:06.718Z,10.8
2018-09-08T06:46:06.596Z,10.8
2018-09-08T06:47:06.600Z,11.0
2018-09-08T06:48:07.255Z,11.0
2018-09-08T06:49:06.834Z,11.0
2018-09-08T06:50:06.636Z,11.2
2018-09-08T06:51:06.805Z,11.2
2018-09-08T06:52:06.675Z,11.5
2018-09-08T06:53:06.536Z,11.5
2018-09-08T06:54:06.538Z,11.5
2018-09-08T06:55:06.630Z,12.0
2018-09-08T06:56:06.646Z,12.0
2018-09-08T06:57:06.583Z,12.1
2018-09-08T06:58:06.887Z,12.1
2018-09-08T06:59:06.635Z,12.1
2018-09-08T07:00:06.869Z,12.4
2018-09-08T07:01:06.577Z,12.4
2018-09-08T07:02:06.872Z,12.4
2018-09-08T07:03:06.804Z,12.4
2018-09-08T07:04:06.603Z,12.4
2018-09-08T07:05:06.605Z,13.2
2018-09-08T07:06:07.140Z,13.2
2018-09-08T07:07:06.634Z,13.4
2018-09-08T07:08:06.598Z,13.4
2018-09-08T07:09:06.922Z,13.4
2018-09-08T07:10:06.593Z,13.4
2018-09-08T07:11:06.577Z,13.4
2018-09-08T07:12:06.556Z,13.8
2018-09-08T07:13:06.901Z,13.8
2018-09-08T07:14:06.910Z,13.8
2018-09-08T07:15:06.657Z,14.0
2018-09-08T07:16:16.766Z,14.0
2018-09-08T07:17:06.899Z,14.0
2018-09-08T07:18:06.643Z,13.7
2018-09-08T07:19:06.830Z,13.7
2018-09-08T07:20:06.855Z,14.2
2018-09-08T07:21:06.903Z,14.2
2018-09-08T07:22:06.705Z,14.2
2018-09-08T07:23:06.866Z,14.1
2018-09-08T07:24:06.909Z,14.1
2018-09-08T07:25:06.932Z,14.0
2018-09-08T07:26:06.824Z,14.0
2018-09-08T07:27:06.990Z,14.0
2018-09-08T07:28:06.606Z,13.8
2018-09-08T07:29:06.901Z,13.8
2018-09-08T07:30:06.614Z,13.6
2018-09-08T07:31:06.646Z,13.6
2018-09-08T07:32:06.593Z,13.6
2018-09-08T07:33:06.645Z,13.6
2018-09-08T07:34:06.625Z,13.6
2018-09-08T07:35:06.620Z,13.6
2018-09-08T07:36:06.625Z,13.6
2018-09-08T07:37:06.616Z,13.6
2018-09-08T07:38:06.948Z,13.6
2018-09-08T07:39:06.632Z,13.6
2018-09-08T07:40:06.725Z,14.0
2018-09-08T07:41:06.649Z,14.0
2018-09-08T07:42:06.639Z,14.0
2018-09-08T07:43:06.952Z,14.0
2018-09-08T07:44:06.939Z,14.0
2018-09-08T07:45:06.696Z,14.0
2018-09-08T07:46:06.857Z,13.9
2018-09-08T07:47:06.982Z,13.9
2018-09-08T07:48:07.386Z,13.8
2018-09-08T07:49:06.680Z,13.8
2018-09-08T07:50:07.591Z,13.8
2018-09-08T07:51:06.958Z,14.1
2018-09-08T07:52:07.265Z,14.1
2018-09-08T07:53:06.681Z,13.9
2018-09-08T07:54:07.378Z,13.9
2018-09-08T07:55:06.972Z,13.9
2018-09-08T07:56:06.902Z,14.0
2018-09-08T07:57:06.939Z,14.0
2018-09-08T07:58:06.661Z,14.2
2018-09-08T07:59:06.692Z,14.2
2018-09-08T08:00:06.975Z,14.2
2018-09-08T08:01:06.690Z,14.1
2018-09-08T08:02:06.704Z,14.1
2018-09-08T08:03:06.723Z,14.3
2018-09-08T08:04:06.696Z,14.3
2018-09-08T08:05:06.777Z,14.3
2018-09-08T08:06:06.703Z,14.4
2018-09-08T08:07:06.806Z,14.4
2018-09-08T08:08:06.733Z,14.5
2018-09-08T08:09:06.748Z,14.5
2018-09-08T08:10:06.755Z,14.5
2018-09-08T08:11:06.801Z,14.9
2018-09-08T08:12:07.049Z,14.9
2018-09-08T08:13:06.975Z,14.8
2018-09-08T08:14:07.522Z,14.8
2018-09-08T08:15:06.720Z,14.8
2018-09-08T08:16:06.734Z,15.1
2018-09-08T08:17:06.764Z,15.1
2018-09-08T08:18:06.947Z,15.1
2018-09-08T08:19:06.714Z,15.5
2018-09-08T08:21:06.729Z,15.2
2018-09-08T08:22:06.715Z,15.2
2018-09-08T08:23:06.731Z,15.2
2018-09-08T08:24:06.783Z,15.2
2018-09-08T08:25:06.691Z,15.2
2018-09-08T08:26:06.768Z,15.8
2018-09-08T08:27:06.760Z,15.8
2018-09-08T08:29:06.777Z,16.0
2018-09-08T08:30:06.766Z,16.0
2018-09-08T08:31:06.760Z,15.8
2018-09-08T08:32:59.780Z,15.8
2018-09-08T08:33:08.318Z,15.8
2018-09-08T08:34:08.068Z,16.3
2018-09-08T08:35:10.348Z,16.3
2018-09-08T08:36:08.568Z,16.4
2018-09-08T08:37:08.071Z,16.4
2018-09-08T08:38:08.122Z,16.4
2018-09-08T08:39:08.076Z,15.7
2018-09-08T08:40:08.042Z,15.7
2018-09-08T08:41:08.027Z,15.8
2018-09-08T08:42:08.850Z,15.8
2018-09-08T08:43:09.232Z,15.8
2018-09-08T08:44:08.356Z,16.0
2018-09-08T08:45:08.056Z,16.0
2018-09-08T08:46:08.391Z,16.0
2018-09-08T08:47:08.121Z,16.1
2018-09-08T08:48:08.341Z,16.1
2018-09-08T08:49:09.019Z,16.6
2018-09-08T08:50:08.043Z,16.6
2018-09-08T08:51:08.046Z,16.6
2018-09-08T08:52:08.465Z,16.8
2018-09-08T08:53:44.294Z,16.8
2018-09-08T08:54:08.343Z,17.1
2018-09-08T08:55:08.125Z,17.1
2018-09-08T08:56:08.050Z,17.1
2018-09-08T08:57:08.287Z,17.0
2018-09-08T08:58:08.008Z,17.0
2018-09-08T08:59:08.291Z,17.3
2018-09-08T09:00:08.067Z,17.3
2018-09-08T09:01:09.415Z,17.3
2018-09-08T09:02:08.095Z,17.0
2018-09-08T09:03:08.002Z,17.0
2018-09-08T09:05:21.312Z,17.0
2018-09-08T09:06:21.120Z,17.0
2018-09-08T09:07:21.439Z,17.2
2018-09-08T09:09:21.354Z,16.9
2018-09-08T09:10:21.024Z,16.9
2018-09-08T09:11:21.106Z,16.9
2018-09-08T09:12:21.121Z,16.7
2018-09-08T09:13:22.143Z,16.7
2018-09-08T09:14:21.129Z,17.0
2018-09-08T09:15:23.242Z,17.0
2018-09-08T09:16:21.002Z,17.0
2018-09-08T09:17:21.322Z,17.5
2018-09-08T09:19:21.118Z,17.3
2018-09-08T09:20:21.039Z,17.3
2018-09-08T09:21:21.077Z,17.3
2018-09-08T09:22:21.125Z,17.0
2018-09-08T09:33:08.942Z,17.0
2018-09-08T09:33:18.664Z,17.0
2018-09-08T09:34:18.339Z,17.8
2018-09-08T09:35:18.309Z,18.5
2018-09-08T09:36:20.245Z,18.5
2018-09-08T09:37:18.442Z,17.4
2018-09-08T09:38:18.535Z,17.4
2018-09-08T09:39:18.462Z,17.4
2018-09-08T09:40:18.605Z,17.4
2018-09-08T09:41:18.578Z,17.4
2018-09-08T09:43:31.564Z,17.7
2018-09-08T09:44:31.579Z,17.7
2018-09-08T09:45:31.526Z,17.7
2018-09-08T09:46:32.735Z,17.7
2018-09-08T09:47:31.655Z,17.7
2018-09-08T09:48:31.717Z,17.7
2018-09-08T09:49:31.765Z,17.7
2018-09-08T09:50:31.675Z,18.0
2018-09-08T09:51:31.560Z,18.0
2018-09-08T09:52:31.677Z,18.0
2018-09-08T09:53:31.711Z,18.0
2018-09-08T09:54:31.630Z,18.0
2018-09-08T09:55:31.826Z,17.7
2018-09-08T09:56:31.844Z,17.7
2018-09-08T09:57:31.868Z,17.5
2018-09-08T09:58:31.683Z,17.5
2018-09-08T09:59:31.800Z,17.5
2018-09-08T10:00:31.596Z,17.7
2018-09-08T10:01:31.995Z,17.7
2018-09-08T10:02:31.694Z,18.1
2018-09-08T10:03:32.300Z,18.1
2018-09-08T10:04:32.015Z,18.1
2018-09-08T10:05:31.772Z,19.0
2018-09-08T10:06:31.821Z,19.0
2018-09-08T10:07:31.722Z,19.5
2018-09-08T10:08:31.897Z,19.5
2018-09-08T10:10:31.770Z,19.2
2018-09-08T10:11:31.708Z,19.2
2018-09-08T10:12:31.590Z,19.2
2018-09-08T10:13:31.647Z,18.8
2018-09-08T10:14:31.575Z,18.8
2018-09-08T10:15:36.476Z,18.5
2018-09-08T10:16:31.699Z,18.5
2018-09-08T10:17:31.632Z,18.5
2018-09-08T10:18:31.623Z,17.6
2018-09-08T10:19:32.293Z,17.6
2018-09-08T10:20:31.695Z,17.4
2018-09-08T10:21:41.808Z,17.4
2018-09-08T10:22:31.790Z,17.4
2018-09-08T10:23:31.887Z,17.8
2018-09-08T10:25:31.800Z,17.8
2018-09-08T10:26:31.917Z,17.8
2018-09-08T10:27:31.644Z,17.8
2018-09-08T10:29:31.792Z,18.5
2018-09-08T10:30:31.723Z,18.3
2018-09-08T10:31:31.870Z,18.3
2018-09-08T10:32:31.590Z,18.3
2018-09-08T10:33:31.629Z,18.3
2018-09-08T10:34:31.640Z,18.3
2018-09-08T10:35:32.003Z,19.0
2018-09-08T10:36:32.256Z,19.0
2018-09-08T10:37:31.926Z,19.0
2018-09-08T10:38:31.767Z,18.8
2018-09-08T10:39:31.964Z,18.8
2018-09-08T10:40:31.788Z,18.8
2018-09-08T10:41:31.726Z,19.2
2018-09-08T10:42:31.829Z,19.2
2018-09-08T10:43:32.392Z,20.0
2018-09-08T10:44:34.740Z,20.0
2018-09-08T10:45:32.604Z,20.0
2018-09-08T10:46:33.617Z,19.8
2018-09-08T10:47:31.710Z,19.8
2018-09-08T10:48:34.081Z,20.0
2018-09-08T10:49:31.855Z,20.0
2018-09-08T10:50:31.583Z,20.0
2018-09-08T10:51:31.990Z,20.2
2018-09-08T10:52:31.654Z,20.2
2018-09-08T10:53:31.690Z,20.5
2018-09-08T10:54:31.680Z,20.5
2018-09-08T10:55:31.809Z,20.5
2018-09-08T10:56:31.871Z,20.4
2018-09-08T10:57:31.704Z,20.4
2018-09-08T10:59:31.648Z,20.9
2018-09-08T11:00:31.683Z,20.9
2018-09-08T11:01:32.092Z,19.8
2018-09-08T11:02:31.905Z,19.8
2018-09-08T11:03:31.665Z,20.5
2018-09-08T11:04:31.624Z,20.5
2018-09-08T11:05:31.935Z,20.5
2018-09-08T11:06:31.728Z,20.5
2018-09-08T11:07:31.920Z,20.5
2018-09-08T11:08:31.705Z,19.5
2018-09-08T11:09:31.968Z,19.5
2018-09-08T11:10:31.971Z,19.5
2018-09-08T11:11:31.756Z,19.8
2018-09-08T11:12:31.689Z,19.8
2018-09-08T11:13:32.009Z,19.8
2018-09-08T11:14:31.673Z,20.4
2018-09-08T11:15:31.956Z,20.4
2018-09-08T11:16:31.949Z,20.8
2018-09-08T11:17:31.720Z,20.8
2018-09-08T11:18:31.750Z,20.8
2018-09-08T11:19:31.990Z,21.0
2018-09-08T11:20:31.938Z,21.0
2018-09-08T11:21:31.714Z,21.5
2018-09-08T11:22:31.687Z,21.5
2018-09-08T11:23:31.810Z,21.5
2018-09-08T11:24:31.641Z,22.0
2018-09-08T11:25:31.739Z,22.0
2018-09-08T11:26:31.976Z,22.2
2018-09-08T11:27:31.738Z,22.2
2018-09-08T11:33:27.243Z,22.2
2018-09-08T11:34:37.662Z,21.7
2018-09-08T11:35:37.606Z,21.7
2018-09-08T11:36:37.615Z,22.4
2018-09-08T11:37:37.681Z,22.4
2018-09-08T11:38:37.687Z,22.4
2018-09-08T11:39:37.641Z,21.1
2018-09-08T11:40:37.652Z,21.1
2018-09-08T11:41:37.655Z,21.1
2018-09-08T11:42:37.981Z,21.1
2018-09-08T11:43:37.921Z,21.1
2018-09-08T11:44:38.023Z,21.3
2018-09-08T11:45:37.656Z,21.3
2018-09-08T11:46:37.653Z,21.3
2018-09-08T11:47:37.670Z,21.3
2018-09-08T11:48:37.690Z,21.3
2018-09-08T11:49:37.984Z,20.8
2018-09-08T11:50:37.926Z,20.8
2018-09-08T11:51:38.302Z,20.8
2018-09-08T11:52:37.655Z,20.7
2018-09-08T11:53:37.698Z,20.7
2018-09-08T11:54:37.702Z,20.5
2018-09-08T11:55:37.720Z,20.5
2018-09-08T11:56:37.694Z,20.5
2018-09-08T11:57:37.703Z,20.5
2018-09-08T11:58:37.730Z,20.5
2018-09-08T11:59:37.766Z,20.8
2018-09-08T12:00:37.776Z,20.8
2018-09-08T12:01:37.797Z,20.8
2018-09-08T12:02:37.786Z,21.2
2018-09-08T12:03:37.807Z,21.2
2018-09-08T12:04:37.730Z,21.9
2018-09-08T12:05:37.680Z,21.9
2018-09-08T12:06:37.990Z,21.9
2018-09-08T12:07:37.756Z,21.1
2018-09-08T12:08:37.763Z,21.1
2018-09-08T12:09:37.829Z,21.2
2018-09-08T12:10:37.707Z,21.2
2018-09-08T12:11:37.712Z,21.2
2018-09-08T12:12:37.730Z,21.2
2018-09-08T12:13:37.786Z,21.2
2018-09-08T12:14:38.008Z,20.8
2018-09-08T12:15:37.725Z,20.8
2018-09-08T12:16:38.474Z,20.8
2018-09-08T12:17:37.672Z,21.1
2018-09-08T12:18:37.691Z,21.1
2018-09-08T12:19:37.688Z,21.1
2018-09-08T12:20:37.742Z,21.3
2018-09-08T12:21:37.986Z,21.3
2018-09-08T12:22:37.950Z,21.6
2018-09-08T12:23:37.749Z,21.6
2018-09-08T12:24:37.700Z,21.6
2018-09-08T12:25:37.828Z,22.0
2018-09-08T12:26:37.721Z,22.0
2018-09-08T12:27:37.736Z,22.0
2018-09-08T12:28:37.708Z,22.0
2018-09-08T12:29:38.261Z,22.0
2018-09-08T12:30:37.899Z,21.6
2018-09-08T12:31:37.750Z,21.6
2018-09-08T12:32:37.882Z,22.1
2018-09-08T12:33:37.953Z,22.1
2018-09-08T12:34:37.726Z,22.1
2018-09-08T12:35:37.713Z,21.6
2018-09-08T12:36:37.736Z,21.6
2018-09-08T12:37:38.032Z,21.5
2018-09-08T12:38:37.816Z,21.5
2018-09-08T12:39:37.842Z,21.5
2018-09-08T12:40:37.742Z,22.0
2018-09-08T12:41:37.758Z,22.0
2018-09-08T12:42:38.037Z,22.2
2018-09-08T12:43:37.783Z,22.2
2018-09-08T12:44:37.883Z,22.2
2018-09-08T12:45:37.737Z,22.1
2018-09-08T12:46:37.802Z,22.1
2018-09-08T12:47:37.844Z,21.4
2018-09-08T12:48:38.441Z,21.4
2018-09-08T12:49:37.862Z,21.4
2018-09-08T12:50:38.079Z,21.8
2018-09-08T12:51:37.845Z,21.8
2018-09-08T12:52:37.967Z,21.8
2018-09-08T12:53:38.013Z,22.2
2018-09-08T12:54:37.872Z,22.2
2018-09-08T12:55:37.803Z,22.3
2018-09-08T12:56:37.848Z,22.3
2018-09-08T12:57:38.428Z,22.3
2018-09-08T12:59:37.845Z,22.1
2018-09-08T13:00:37.920Z,21.8
2018-09-08T13:02:38.487Z,21.8
2018-09-08T13:04:37.759Z,22.4
2018-09-08T13:05:37.832Z,22.8
2018-09-08T13:06:38.027Z,22.8
2018-09-08T13:07:37.818Z,22.8
2018-09-08T13:08:38.138Z,22.8
2018-09-08T13:09:37.857Z,22.8
2018-09-08T13:10:38.759Z,22.7
2018-09-08T13:11:38.309Z,22.7
2018-09-08T13:12:38.186Z,22.7
2018-09-08T13:13:37.826Z,23.1
2018-09-08T13:14:37.812Z,23.1
2018-09-08T13:15:38.080Z,22.3
2018-09-08T13:16:38.236Z,22.3
2018-09-08T13:17:38.083Z,22.3
2018-09-08T13:18:38.384Z,22.6
2018-09-08T13:19:38.345Z,22.6
2018-09-08T13:20:38.408Z,22.6
2018-09-08T13:21:37.998Z,22.6
2018-09-08T13:22:39.304Z,22.6
2018-09-08T13:24:38.836Z,22.7
2018-09-08T13:25:38.503Z,22.7
2018-09-08T13:26:38.243Z,22.8
2018-09-08T13:27:38.190Z,22.8
2018-09-08T13:28:38.153Z,22.1
2018-09-08T13:29:38.244Z,22.1
2018-09-08T13:30:37.993Z,22.1
2018-09-08T13:31:37.978Z,22.1
2018-09-08T13:32:38.069Z,22.1
2018-09-08T13:33:38.635Z,23.2
2018-09-08T13:34:54.113Z,23.2
2018-09-08T13:35:39.012Z,23.2
2018-09-08T13:36:38.533Z,23.6
2018-09-08T13:37:38.004Z,23.6
2018-09-08T13:38:38.229Z,23.7
2018-09-08T13:39:38.621Z,23.7
2018-09-08T13:40:37.979Z,23.7
2018-09-08T13:41:38.168Z,22.7
2018-09-08T13:42:38.158Z,22.7
2018-09-08T13:43:38.080Z,22.2
2018-09-08T13:45:37.977Z,22.2
2018-09-08T13:46:37.967Z,22.4
2018-09-08T13:47:38.114Z,22.4
2018-09-08T13:48:38.442Z,22.4
2018-09-08T13:49:38.004Z,22.4
2018-09-08T13:50:38.030Z,22.4
2018-09-08T13:51:37.976Z,21.8
2018-09-08T13:52:38.087Z,21.8
2018-09-08T13:53:38.055Z,21.8
2018-09-08T13:54:38.203Z,21.7
2018-09-08T13:56:52.694Z,22.0
2018-09-08T13:57:51.129Z,22.0
2018-09-08T13:58:51.092Z,22.4
2018-09-08T13:59:51.321Z,22.4
2018-09-08T14:00:51.046Z,22.4
2018-09-08T14:01:51.072Z,22.6
2018-09-08T14:02:51.294Z,22.6
2018-09-08T14:03:51.131Z,22.6
2018-09-08T14:04:51.113Z,22.7
2018-09-08T14:05:51.263Z,22.7
2018-09-08T14:07:01.246Z,22.7
2018-09-08T14:07:51.134Z,22.7
2018-09-08T14:08:51.165Z,22.7
2018-09-08T14:09:51.253Z,22.5
2018-09-08T14:11:51.248Z,22.7
2018-09-08T14:12:51.153Z,22.7
2018-09-08T14:13:51.178Z,22.7
2018-09-08T14:14:51.165Z,22.8
2018-09-08T14:15:51.112Z,22.8
2018-09-08T14:16:51.749Z,22.2
2018-09-08T14:17:51.135Z,22.2
2018-09-08T14:18:51.110Z,22.2
2018-09-08T14:19:51.141Z,22.5
2018-09-08T14:20:51.125Z,22.5
2018-09-08T14:21:51.070Z,22.5
2018-09-08T14:22:51.124Z,22.5
2018-09-08T14:23:51.089Z,22.5
2018-09-08T14:24:51.284Z,22.4
2018-09-08T14:25:51.213Z,22.4
2018-09-08T14:26:51.794Z,22.7
2018-09-08T14:27:51.164Z,22.7
2018-09-08T14:28:51.127Z,22.7
2018-09-08T14:29:51.212Z,22.7
2018-09-08T14:30:51.321Z,22.7
2018-09-08T14:31:51.125Z,22.5